createdAt,value
2019-04-14T00:01:15.152Z,1.50
2019-04-14T00:03:47.621Z,2.33
2019-04-14T00:06:15.895Z,2.37
2019-04-14T00:08:43.733Z,4.58
2019-04-14T00:11:11.046Z,2.30
2019-04-14T00:13:39.257Z,2.45
2019-04-14T00:16:07.418Z,3.37
2019-04-14T00:18:35.660Z,1.65
2019-04-14T00:21:04.355Z,3.27
2019-04-14T00:23:32.653Z,3.42
2019-04-14T00:26:18.380Z,3.27
2019-04-14T00:28:46.942Z,3.05
2019-04-14T00:31:15.190Z,1.27
2019-04-14T00:33:43.258Z,3.10
2019-04-14T00:36:13.331Z,2.90
2019-04-14T00:38:43.231Z,2.70
2019-04-14T00:41:15.951Z,2.02
2019-04-14T00:43:59.608Z,2.12
2019-04-14T00:46:37.018Z,4.00
2019-04-14T00:49:04.975Z,6.58
2019-04-14T00:51:33.129Z,7.42
2019-04-14T00:54:00.519Z,6.50
2019-04-14T00:56:27.951Z,6.20
2019-04-14T00:58:56.129Z,3.98
2019-04-14T01:01:26.410Z,4.12
2019-04-14T01:03:54.761Z,4.12
2019-04-14T01:06:22.957Z,4.45
2019-04-14T01:08:51.147Z,3.17
2019-04-14T01:11:18.479Z,5.15
2019-04-14T01:13:46.264Z,4.85
2019-04-14T01:16:17.559Z,5.35
2019-04-14T01:18:43.014Z,4.47
2019-04-14T01:21:11.039Z,5.20
2019-04-14T01:23:39.216Z,3.52
2019-04-14T01:26:07.211Z,4.08
2019-04-14T01:28:35.435Z,2.72
2019-04-14T01:31:03.361Z,5.15
2019-04-14T01:33:31.587Z,5.22
2019-04-14T01:35:59.638Z,4.05
2019-04-14T01:38:27.609Z,4.58
2019-04-14T01:40:55.285Z,2.33
2019-04-14T01:43:23.464Z,2.62
2019-04-14T01:46:03.678Z,2.65
2019-04-14T01:48:20.038Z,3.83
2019-04-14T01:50:54.466Z,4.55
2019-04-14T01:53:23.574Z,3.65
2019-04-14T01:55:52.750Z,4.72
2019-04-14T01:58:22.806Z,5.30
2019-04-14T02:01:08.446Z,5.33
2019-04-14T02:03:36.637Z,4.00
2019-04-14T02:06:04.804Z,6.28
2019-04-14T02:08:32.907Z,5.42
2019-04-14T02:11:00.912Z,4.17
2019-04-14T02:13:29.121Z,3.02
2019-04-14T02:15:57.315Z,2.05
2019-04-14T02:18:25.173Z,2.27
2019-04-14T02:20:53.588Z,3.27
2019-04-14T02:23:21.476Z,2.58
2019-04-14T02:25:49.398Z,4.97
2019-04-14T02:28:17.768Z,3.12
2019-04-14T02:30:53.810Z,2.70
2019-04-14T02:33:44.322Z,2.70
2019-04-14T02:36:14.689Z,4.53
2019-04-14T02:38:49.045Z,3.92
2019-04-14T02:41:11.102Z,3.98
2019-04-14T02:43:45.344Z,5.28
2019-04-14T02:46:03.961Z,4.65
2019-04-14T02:48:50.848Z,3.00
2019-04-14T02:51:06.159Z,4.97
2019-04-14T02:53:51.376Z,3.65
2019-04-14T02:58:36.555Z,8.50
2019-04-14T03:01:09.959Z,5.20
2019-04-14T03:06:01.563Z,5.78
2019-04-14T03:10:53.699Z,9.38
2019-04-14T03:15:58.914Z,3.85
2019-04-14T03:21:20.029Z,4.33
2019-04-14T03:23:53.485Z,3.02
2019-04-14T03:26:17.697Z,3.87
2019-04-14T03:28:51.371Z,4.45
2019-04-14T03:34:12.916Z,4.28
2019-04-14T03:36:59.705Z,6.47
2019-04-14T03:41:24.078Z,5.50
2019-04-14T03:43:41.799Z,5.72
2019-04-14T03:46:37.111Z,8.05
2019-04-14T03:51:18.854Z,6.87
2019-04-14T03:53:41.307Z,3.40
2019-04-14T03:55:55.264Z,7.25
2019-04-14T03:58:20.460Z,6.00
2019-04-14T04:00:49.177Z,7.42
2019-04-14T04:03:17.346Z,8.73
2019-04-14T04:05:45.627Z,9.03
2019-04-14T04:08:13.654Z,5.80
2019-04-14T04:10:42.650Z,8.95
2019-04-14T04:13:10.530Z,15.43
2019-04-14T04:15:38.879Z,15.40
2019-04-14T04:18:19.904Z,8.05
2019-04-14T04:20:52.404Z,10.28
2019-04-14T04:23:24.837Z,6.53
2019-04-14T04:25:57.248Z,5.33
2019-04-14T04:28:42.870Z,4.95
2019-04-14T04:31:13.374Z,4.42
2019-04-14T04:33:42.306Z,7.83
2019-04-14T04:36:11.766Z,7.58
2019-04-14T04:38:53.147Z,6.70
2019-04-14T04:41:21.097Z,6.70
2019-04-14T04:43:49.429Z,7.90
2019-04-14T04:46:17.694Z,7.60
2019-04-14T04:51:57.259Z,9.50
2019-04-14T04:54:25.642Z,9.35
2019-04-14T04:56:53.752Z,9.90
2019-04-14T04:59:21.348Z,7.50
2019-04-14T05:01:49.441Z,5.65
2019-04-14T05:04:17.623Z,9.23
2019-04-14T05:06:57.366Z,9.45
2019-04-14T05:09:38.936Z,13.38
2019-04-14T05:12:24.094Z,7.83
2019-04-14T05:15:01.611Z,7.78
2019-04-14T05:17:34.223Z,10.13
2019-04-14T05:20:03.031Z,5.20
2019-04-14T05:22:31.097Z,6.83
2019-04-14T05:24:59.248Z,7.67
2019-04-14T05:27:27.625Z,6.95
2019-04-14T05:29:55.853Z,5.53
2019-04-14T05:32:24.049Z,8.35
2019-04-14T05:34:52.179Z,7.12
2019-04-14T05:37:20.344Z,5.22
2019-04-14T05:39:48.417Z,5.05
2019-04-14T05:42:20.126Z,6.30
2019-04-14T05:44:44.838Z,4.10
2019-04-14T05:47:13.156Z,3.12
2019-04-14T05:49:45.468Z,5.55
2019-04-14T05:52:09.880Z,5.08
2019-04-14T05:54:38.227Z,4.20
2019-04-14T05:57:06.547Z,3.55
2019-04-14T05:59:33.836Z,5.30
2019-04-14T06:02:02.335Z,4.37
2019-04-14T06:04:30.938Z,4.20
2019-04-14T06:06:58.284Z,7.75
2019-04-14T06:09:25.512Z,3.90
2019-04-14T06:11:52.720Z,5.00
2019-04-14T06:14:19.989Z,3.37
2019-04-14T06:16:47.208Z,4.78
2019-04-14T06:19:14.404Z,6.08
2019-04-14T06:21:41.631Z,3.83
2019-04-14T06:24:08.936Z,4.65
2019-04-14T06:26:36.234Z,2.98
2019-04-14T06:29:03.523Z,5.90
2019-04-14T06:31:41.264Z,8.90
2019-04-14T06:34:15.805Z,8.18
2019-04-14T06:36:50.641Z,5.97
2019-04-14T06:39:22.280Z,9.43
2019-04-14T06:41:49.505Z,7.70
2019-04-14T06:44:16.871Z,7.90
2019-04-14T06:46:44.183Z,8.48
2019-04-14T06:49:11.448Z,8.48
2019-04-14T06:51:38.683Z,4.85
2019-04-14T06:54:05.956Z,6.78
2019-04-14T06:56:33.181Z,5.08
2019-04-14T06:59:00.374Z,6.05
2019-04-14T07:01:27.681Z,3.30
2019-04-14T07:03:54.880Z,4.75
2019-04-14T07:06:22.103Z,4.12
2019-04-14T07:08:49.574Z,2.62
2019-04-14T07:11:16.869Z,4.10
2019-04-14T07:13:47.864Z,9.83
2019-04-14T07:16:13.105Z,5.53
2019-04-14T07:18:40.613Z,7.60
2019-04-14T07:21:07.902Z,8.00
2019-04-14T07:23:35.186Z,6.42
2019-04-14T07:26:02.491Z,10.70
2019-04-14T07:28:29.934Z,10.18
2019-04-14T07:31:01.510Z,7.40
2019-04-14T07:33:46.880Z,9.83
2019-04-14T07:36:24.817Z,9.40
2019-04-14T07:39:10.264Z,9.63
2019-04-14T07:41:39.109Z,7.60
2019-04-14T07:44:10.938Z,14.07
2019-04-14T07:46:52.344Z,10.60
2019-04-14T07:49:24.212Z,9.45
2019-04-14T07:51:56.131Z,9.35
2019-04-14T07:54:25.045Z,9.40
2019-04-14T07:56:56.597Z,10.25
2019-04-14T07:59:29.056Z,9.60
2019-04-14T08:02:00.957Z,9.68
2019-04-14T08:04:30.153Z,11.00
2019-04-14T08:07:00.820Z,10.28
2019-04-14T08:09:28.330Z,11.78
2019-04-14T08:11:55.776Z,12.90
2019-04-14T08:14:23.212Z,22.48
2019-04-14T08:16:50.484Z,12.53
2019-04-14T08:19:17.756Z,8.53
2019-04-14T08:21:45.000Z,15.43
2019-04-14T08:24:12.655Z,15.93
2019-04-14T08:26:39.937Z,12.63
2019-04-14T08:29:07.173Z,17.60
2019-04-14T08:31:34.369Z,15.08
2019-04-14T08:34:01.807Z,12.15
2019-04-14T08:36:33.206Z,8.40
2019-04-14T08:39:02.352Z,14.45
2019-04-14T08:41:31.997Z,14.40
2019-04-14T08:44:16.913Z,18.07
2019-04-14T08:46:45.758Z,12.93
2019-04-14T08:49:20.703Z,14.95
2019-04-14T08:51:58.329Z,12.82
2019-04-14T08:54:27.272Z,15.45
2019-04-14T08:57:01.924Z,15.60
2019-04-14T08:59:37.027Z,13.22
2019-04-14T09:02:24.075Z,6.75
2019-04-14T09:04:56.183Z,21.95
2019-04-14T09:07:28.071Z,16.53
2019-04-14T09:09:59.967Z,10.30
2019-04-14T09:12:28.908Z,12.23
2019-04-14T09:14:57.468Z,8.63
2019-04-14T09:17:26.740Z,12.73
2019-04-14T09:19:54.248Z,15.40
2019-04-14T09:22:21.453Z,17.23
2019-04-14T09:24:48.763Z,15.10
2019-04-14T09:27:16.126Z,13.72
2019-04-14T09:29:43.680Z,11.75
2019-04-14T09:32:12.375Z,18.07
2019-04-14T09:34:39.644Z,11.30
2019-04-14T09:37:06.934Z,22.75
2019-04-14T09:39:34.243Z,16.70
2019-04-14T09:42:01.717Z,17.77
2019-04-14T09:44:28.984Z,15.88
2019-04-14T09:46:56.229Z,16.02
2019-04-14T09:49:23.434Z,14.78
2019-04-14T09:51:50.704Z,17.27
2019-04-14T09:54:19.752Z,10.20
2019-04-14T09:56:47.024Z,13.28
2019-04-14T09:59:14.219Z,12.95
2019-04-14T10:01:41.613Z,11.60
2019-04-14T10:04:09.143Z,13.83
2019-04-14T10:06:36.360Z,17.57
2019-04-14T10:09:05.133Z,13.28
2019-04-14T10:11:32.687Z,15.83
2019-04-14T10:14:00.092Z,16.15
2019-04-14T10:16:27.689Z,15.90
2019-04-14T10:18:54.916Z,12.28
2019-04-14T10:21:22.206Z,15.38
2019-04-14T10:23:49.737Z,11.45
2019-04-14T10:26:16.955Z,8.85
2019-04-14T10:28:44.299Z,15.90
2019-04-14T10:31:11.554Z,19.57
2019-04-14T10:33:38.787Z,14.43
2019-04-14T10:36:06.253Z,10.00
2019-04-14T10:38:33.505Z,10.45
2019-04-14T10:41:00.714Z,9.80
2019-04-14T10:43:28.216Z,11.63
2019-04-14T10:45:55.485Z,8.15
2019-04-14T10:48:22.793Z,8.53
2019-04-14T10:50:49.989Z,8.15
2019-04-14T10:53:17.189Z,11.40
2019-04-14T10:55:44.713Z,10.98
2019-04-14T10:58:11.987Z,14.05
2019-04-14T11:00:39.216Z,11.63
2019-04-14T11:03:06.686Z,13.65
2019-04-14T11:05:38.505Z,8.98
2019-04-14T11:08:05.791Z,10.82
2019-04-14T11:10:33.086Z,11.78
2019-04-14T11:13:00.284Z,12.70
2019-04-14T11:15:27.516Z,13.48
2019-04-14T11:17:54.789Z,10.82
2019-04-14T11:20:22.068Z,10.50
2019-04-14T11:22:49.296Z,8.63
2019-04-14T11:25:16.525Z,8.40
2019-04-14T11:27:43.897Z,9.35
2019-04-14T11:30:12.742Z,9.60
2019-04-14T11:32:57.996Z,9.18
2019-04-14T11:35:26.985Z,10.55
2019-04-14T11:38:08.436Z,7.22
2019-04-14T11:40:46.239Z,8.03
2019-04-14T11:43:13.483Z,15.05
2019-04-14T11:45:40.780Z,8.85
2019-04-14T11:48:08.530Z,16.42
2019-04-14T11:50:35.805Z,11.05
2019-04-14T11:53:03.119Z,15.03
2019-04-14T11:55:30.391Z,11.38
2019-04-14T11:57:57.972Z,8.30
2019-04-14T12:00:26.885Z,10.90
2019-04-14T12:03:11.181Z,8.00
2019-04-14T12:05:52.152Z,15.30
2019-04-14T12:08:37.373Z,12.70
2019-04-14T12:11:04.824Z,7.37
2019-04-14T12:13:32.044Z,6.67
2019-04-14T12:15:59.240Z,9.00
2019-04-14T12:18:26.464Z,13.13
2019-04-14T12:20:53.664Z,13.48
2019-04-14T12:23:20.910Z,12.93
2019-04-14T12:25:48.184Z,11.48
2019-04-14T12:28:15.668Z,10.78
2019-04-14T12:30:44.279Z,14.23
2019-04-14T12:33:11.632Z,12.68
2019-04-14T12:35:38.900Z,11.78
2019-04-14T12:38:06.204Z,10.50
2019-04-14T12:40:33.723Z,12.00
2019-04-14T12:43:19.105Z,10.80
2019-04-14T12:45:50.684Z,11.97
2019-04-14T12:48:19.529Z,15.93
2019-04-14T12:50:54.505Z,9.75
2019-04-14T12:53:21.704Z,10.13
2019-04-14T12:55:48.928Z,10.60
2019-04-14T12:58:17.796Z,11.33
2019-04-14T13:00:47.937Z,9.80
2019-04-14T13:03:15.572Z,11.60
2019-04-14T13:05:42.837Z,13.83
2019-04-14T13:08:10.160Z,9.23
2019-04-14T13:10:37.568Z,11.95
2019-04-14T13:13:05.277Z,11.68
2019-04-14T13:15:32.564Z,10.75
2019-04-14T13:18:00.035Z,10.20
2019-04-14T13:20:27.394Z,11.25
2019-04-14T13:22:54.865Z,8.10
2019-04-14T13:25:22.957Z,9.15
2019-04-14T13:27:50.728Z,10.50
2019-04-14T13:30:19.950Z,12.07
2019-04-14T13:32:47.245Z,9.73
2019-04-14T13:35:14.853Z,10.83
2019-04-14T13:37:42.475Z,11.12
2019-04-14T13:40:10.095Z,10.70
2019-04-14T13:42:39.368Z,9.68
2019-04-14T13:45:07.096Z,8.52
2019-04-14T13:47:34.711Z,11.40
2019-04-14T13:50:02.038Z,12.63
2019-04-14T13:52:31.033Z,8.85
2019-04-14T13:54:58.720Z,11.45
2019-04-14T13:57:25.972Z,10.68
2019-04-14T13:59:53.382Z,7.50
2019-04-14T14:02:20.941Z,6.17
2019-04-14T14:04:48.451Z,8.75
2019-04-14T14:07:15.722Z,7.70
2019-04-14T14:09:43.153Z,6.83
2019-04-14T14:12:15.241Z,11.40
2019-04-14T14:14:44.422Z,13.38
2019-04-14T14:17:16.037Z,10.93
2019-04-14T14:19:44.902Z,12.07
2019-04-14T14:22:13.946Z,10.45
2019-04-14T14:24:46.205Z,9.40
2019-04-14T14:27:13.440Z,9.17
2019-04-14T14:29:40.776Z,11.97
2019-04-14T14:32:09.624Z,10.80
2019-04-14T14:34:37.100Z,11.90
2019-04-14T14:37:04.360Z,15.80
2019-04-14T14:39:32.145Z,13.25
2019-04-14T14:41:59.441Z,12.85
2019-04-14T14:44:28.785Z,11.15
2019-04-14T14:47:00.802Z,9.88
2019-04-14T14:49:29.838Z,9.30
2019-04-14T14:52:10.853Z,8.10
2019-04-14T14:54:38.203Z,8.25
2019-04-14T14:57:05.413Z,11.75
2019-04-14T14:59:33.470Z,12.50
2019-04-14T15:02:01.061Z,10.43
2019-04-14T15:04:28.340Z,10.65
2019-04-14T15:06:55.669Z,9.00
2019-04-14T15:09:24.782Z,9.48
2019-04-14T15:11:51.990Z,7.72
2019-04-14T15:14:19.907Z,8.63
2019-04-14T15:16:47.188Z,13.20
2019-04-14T15:19:14.390Z,10.13
2019-04-14T15:21:41.990Z,8.40
2019-04-14T15:24:09.186Z,7.12
2019-04-14T15:26:36.817Z,9.25
2019-04-14T15:29:04.116Z,10.93
2019-04-14T15:31:31.367Z,12.43
2019-04-14T15:33:58.650Z,8.73
2019-04-14T15:36:25.928Z,6.47
2019-04-14T15:38:53.225Z,7.08
2019-04-14T15:41:20.453Z,10.38
2019-04-14T15:43:50.485Z,7.47
2019-04-14T15:46:17.701Z,9.03
2019-04-14T15:48:44.972Z,7.53
2019-04-14T15:51:12.276Z,5.35
2019-04-14T15:53:39.472Z,9.23
2019-04-14T15:56:07.477Z,8.18
2019-04-14T15:58:48.060Z,10.13
2019-04-14T16:01:22.757Z,11.30
2019-04-14T16:03:54.644Z,8.33
2019-04-14T16:06:29.320Z,8.58
2019-04-14T16:08:58.156Z,10.38
2019-04-14T16:11:29.699Z,7.05
2019-04-14T16:14:04.620Z,7.17
2019-04-14T16:16:36.411Z,11.18
2019-04-14T16:19:08.663Z,11.73
2019-04-14T16:21:36.196Z,9.53
2019-04-14T16:24:03.464Z,9.85
2019-04-14T16:26:35.352Z,11.70
2019-04-14T16:29:06.960Z,9.95
2019-04-14T16:31:42.037Z,8.10
2019-04-14T16:34:13.845Z,11.50
2019-04-14T16:36:42.687Z,7.90
2019-04-14T16:39:10.020Z,7.70
2019-04-14T16:41:37.216Z,8.88
2019-04-14T16:44:04.415Z,8.78
2019-04-14T16:46:31.730Z,14.38
2019-04-14T16:48:59.108Z,12.90
2019-04-14T16:51:36.807Z,9.35
2019-04-14T16:54:05.716Z,7.78
2019-04-14T16:56:46.997Z,8.75
2019-04-14T16:59:14.270Z,10.40
2019-04-14T17:01:43.176Z,14.20
2019-04-14T17:04:10.474Z,8.25
2019-04-14T17:06:38.912Z,12.45
2019-04-14T17:09:06.580Z,10.13
2019-04-14T17:11:33.847Z,12.13
2019-04-14T17:14:08.769Z,12.03
2019-04-14T17:16:53.875Z,10.68
2019-04-14T17:19:22.716Z,7.80
2019-04-14T17:21:57.716Z,8.80
2019-04-14T17:24:41.448Z,9.25
2019-04-14T17:27:10.332Z,8.55
2019-04-14T17:29:44.781Z,10.72
2019-04-14T17:32:16.768Z,13.88
2019-04-14T17:34:48.559Z,11.55
2019-04-14T17:37:33.896Z,11.60
2019-04-14T17:40:18.749Z,7.60
2019-04-14T17:42:56.420Z,7.40
2019-04-14T17:45:25.252Z,8.33
2019-04-14T17:48:00.000Z,9.13
2019-04-14T17:50:40.044Z,9.73
2019-04-14T17:53:15.624Z,14.45
2019-04-14T17:56:02.754Z,14.55
2019-04-14T17:58:32.025Z,9.73
2019-04-14T18:01:06.784Z,14.07
2019-04-14T18:03:41.760Z,9.03
2019-04-14T18:06:28.791Z,6.50
2019-04-14T18:09:15.980Z,9.88
2019-04-14T18:11:53.860Z,7.15
2019-04-14T18:14:22.808Z,10.13
2019-04-14T18:17:06.674Z,9.03
2019-04-14T18:19:38.656Z,10.78
2019-04-14T18:22:05.857Z,9.48
2019-04-14T18:24:42.233Z,9.05
2019-04-14T18:27:02.056Z,8.73
2019-04-14T18:29:39.748Z,7.83
2019-04-14T18:32:08.662Z,10.23
2019-04-14T18:34:53.713Z,10.13
2019-04-14T18:37:28.262Z,11.53
2019-04-14T18:39:57.176Z,11.90
2019-04-14T18:42:26.020Z,13.98
2019-04-14T18:45:11.296Z,13.68
2019-04-14T18:47:58.013Z,9.58
2019-04-14T18:50:38.829Z,7.58
2019-04-14T18:53:13.605Z,9.53
2019-04-14T18:55:46.834Z,12.80
2019-04-14T19:01:01.839Z,10.85
2019-04-14T19:03:29.033Z,9.35
2019-04-14T19:05:56.230Z,7.60
2019-04-14T19:08:23.637Z,9.15
2019-04-14T19:10:58.435Z,6.37
2019-04-14T19:13:29.837Z,8.18
2019-04-14T19:15:58.745Z,9.50
2019-04-14T19:18:30.628Z,9.83
2019-04-14T19:20:59.488Z,12.25
2019-04-14T19:23:26.685Z,11.08
2019-04-14T19:25:53.919Z,13.43
2019-04-14T19:28:21.115Z,8.88
2019-04-14T19:30:48.441Z,9.25
2019-04-14T19:33:15.644Z,11.43
2019-04-14T19:35:42.914Z,10.23
2019-04-14T19:38:10.229Z,13.03
2019-04-14T19:40:37.431Z,12.50
2019-04-14T19:43:04.624Z,7.95
2019-04-14T19:45:31.920Z,7.80
2019-04-14T19:47:59.401Z,10.08
2019-04-14T19:50:26.660Z,8.53
2019-04-14T19:52:53.900Z,8.38
2019-04-14T19:55:21.092Z,6.75
2019-04-14T19:57:48.285Z,6.92
2019-04-14T20:00:17.024Z,6.55
2019-04-14T20:02:44.244Z,5.62
2019-04-14T20:05:11.445Z,6.60
2019-04-14T20:07:38.952Z,4.72
2019-04-14T20:10:07.947Z,4.35
2019-04-14T20:12:35.361Z,4.28
2019-04-14T20:15:02.926Z,4.58
2019-04-14T20:17:34.764Z,5.05
2019-04-14T20:20:18.793Z,7.20
2019-04-14T20:22:47.702Z,7.25
2019-04-14T20:25:33.677Z,5.47
2019-04-14T20:27:55.983Z,5.60
2019-04-14T20:30:27.792Z,4.80
2019-04-14T20:32:56.620Z,8.78
2019-04-14T20:35:23.954Z,6.23
2019-04-14T20:37:51.329Z,4.80
2019-04-14T20:40:18.884Z,5.57
2019-04-14T20:42:46.084Z,3.75
2019-04-14T20:45:13.717Z,5.53
2019-04-14T20:47:41.176Z,5.62
2019-04-14T20:50:08.475Z,5.47
2019-04-14T20:52:35.997Z,3.90
2019-04-14T20:55:05.231Z,3.47
2019-04-14T20:57:32.424Z,5.25
2019-04-14T20:59:59.656Z,4.12
2019-04-14T21:02:31.312Z,3.45
2019-04-14T21:05:12.335Z,2.60
2019-04-14T21:07:57.632Z,4.20
2019-04-14T21:10:42.688Z,3.47
2019-04-14T21:13:20.220Z,2.15
2019-04-14T21:15:54.873Z,3.98
2019-04-14T21:18:23.744Z,4.17
2019-04-14T21:20:52.612Z,4.85
2019-04-14T21:23:30.241Z,2.77
2019-04-14T21:26:01.004Z,2.10
2019-04-14T21:28:32.736Z,5.87
2019-04-14T21:31:01.605Z,3.33
2019-04-14T21:33:46.865Z,5.00
2019-04-14T21:36:15.728Z,4.17
2019-04-14T21:38:59.280Z,4.30
2019-04-14T21:41:31.140Z,2.33
2019-04-14T21:43:58.336Z,3.70
2019-04-14T21:46:25.538Z,4.25
2019-04-14T21:48:52.774Z,3.52
2019-04-14T21:51:21.952Z,2.92
2019-04-14T21:53:49.222Z,3.40
2019-04-14T21:56:16.533Z,2.83
2019-04-14T21:58:57.398Z,3.25
2019-04-14T22:01:44.292Z,3.55
2019-04-14T22:04:29.762Z,3.62
2019-04-14T22:07:15.020Z,5.08
2019-04-14T22:09:42.485Z,4.92
2019-04-14T22:12:10.354Z,5.45
2019-04-14T22:14:37.572Z,2.92
2019-04-14T22:17:05.040Z,1.77
2019-04-14T22:19:32.336Z,3.42
2019-04-14T22:21:59.612Z,2.70
2019-04-14T22:24:26.910Z,3.00
2019-04-14T22:26:54.176Z,2.75
2019-04-14T22:29:21.680Z,2.05
2019-04-14T22:31:48.883Z,1.72
2019-04-14T22:34:16.176Z,2.13
2019-04-14T22:36:43.382Z,1.60
2019-04-14T22:39:15.024Z,1.98
2019-04-14T22:41:42.223Z,3.17
2019-04-14T22:44:09.444Z,6.12
2019-04-14T22:46:36.641Z,7.05
2019-04-14T22:49:03.877Z,2.95
2019-04-14T22:51:31.144Z,4.83
2019-04-14T22:53:58.340Z,4.97
2019-04-14T22:56:38.292Z,6.08
2019-04-14T22:58:54.489Z,3.95
2019-04-14T23:01:23.692Z,2.55
2019-04-14T23:03:55.486Z,5.30
2019-04-14T23:06:24.679Z,4.97
2019-04-14T23:08:56.474Z,7.72
2019-04-14T23:11:43.336Z,5.40
2019-04-14T23:14:12.463Z,3.17
2019-04-14T23:16:57.862Z,2.75
2019-04-14T23:19:43.140Z,3.20
2019-04-14T23:22:12.012Z,8.78
2019-04-14T23:24:40.848Z,5.80
2019-04-14T23:27:08.378Z,6.70
2019-04-14T23:29:35.650Z,5.72
2019-04-14T23:32:03.447Z,8.80
2019-04-14T23:34:30.721Z,5.45
2019-04-14T23:36:58.021Z,6.85
2019-04-14T23:39:25.300Z,5.08
2019-04-14T23:41:52.848Z,3.17
2019-04-14T23:44:20.044Z,3.02
2019-04-14T23:46:47.271Z,3.08
2019-04-14T23:49:14.540Z,3.70
2019-04-14T23:51:41.840Z,5.47
2019-04-14T23:54:09.035Z,4.05
2019-04-14T23:56:36.256Z,3.58
2019-04-14T23:59:03.464Z,4.03
